createdAt,value
2023-05-10T00:00:23.686Z,0.00
2023-05-10T00:01:23.677Z,0.00
2023-05-10T00:02:23.771Z,0.00
2023-05-10T00:03:23.708Z,0.00
2023-05-10T00:04:23.636Z,0.00
2023-05-10T00:05:23.609Z,0.00
2023-05-10T00:06:23.635Z,0.00
2023-05-10T00:07:23.734Z,0.00
2023-05-10T00:08:23.595Z,0.00
2023-05-10T00:09:23.572Z,0.00
2023-05-10T00:10:23.582Z,0.00
2023-05-10T00:11:23.556Z,0.00
2023-05-10T00:12:23.553Z,0.00
2023-05-10T00:13:23.584Z,0.00
2023-05-10T00:14:23.521Z,0.00
2023-05-10T00:15:23.523Z,0.00
2023-05-10T00:16:23.520Z,0.00
2023-05-10T00:17:23.672Z,0.00
2023-05-10T00:18:23.478Z,0.00
2023-05-10T00:19:23.470Z,0.00
2023-05-10T00:20:23.471Z,0.00
2023-05-10T00:21:23.452Z,0.00
2023-05-10T00:22:23.492Z,0.00
2023-05-10T00:23:23.445Z,0.00
2023-05-10T00:24:23.431Z,0.00
2023-05-10T00:25:23.528Z,0.00
2023-05-10T00:26:23.436Z,0.00
2023-05-10T00:27:23.459Z,0.00
2023-05-10T00:28:23.437Z,0.00
2023-05-10T00:29:23.463Z,0.00
2023-05-10T00:30:23.352Z,0.00
2023-05-10T00:31:23.385Z,0.00
2023-05-10T00:32:23.481Z,0.00
2023-05-10T00:33:23.327Z,0.00
2023-05-10T00:34:23.333Z,0.00
2023-05-10T00:35:23.301Z,0.00
2023-05-10T00:36:23.306Z,0.00
2023-05-10T00:37:23.281Z,0.00
2023-05-10T00:38:23.286Z,0.00
2023-05-10T00:39:23.269Z,0.00
2023-05-10T00:40:23.253Z,0.00
2023-05-10T00:41:23.232Z,0.00
2023-05-10T00:42:23.238Z,0.00
2023-05-10T00:43:23.237Z,0.00
2023-05-10T00:44:23.207Z,0.00
2023-05-10T00:45:23.193Z,0.00
2023-05-10T00:46:23.262Z,0.00
2023-05-10T00:47:23.213Z,0.00
2023-05-10T00:48:23.186Z,0.00
2023-05-10T00:49:23.166Z,0.00
2023-05-10T00:50:23.148Z,0.00
2023-05-10T00:51:23.153Z,0.00
2023-05-10T00:52:23.145Z,0.00
2023-05-10T00:53:23.116Z,0.00
2023-05-10T00:54:23.123Z,0.00
2023-05-10T00:55:23.089Z,0.00
2023-05-10T00:56:23.086Z,0.00
2023-05-10T00:57:23.084Z,0.00
2023-05-10T00:58:23.064Z,0.00
2023-05-10T00:59:23.048Z,0.00
2023-05-10T01:00:23.045Z,0.00
2023-05-10T01:01:23.080Z,0.00
2023-05-10T01:02:23.126Z,0.00
2023-05-10T01:03:23.117Z,0.00
2023-05-10T01:04:23.000Z,0.00
2023-05-10T01:05:23.117Z,0.00
2023-05-10T01:06:23.004Z,0.00
2023-05-10T01:07:22.989Z,0.00
2023-05-10T01:08:22.976Z,0.00
2023-05-10T01:09:22.956Z,0.00
2023-05-10T01:10:22.943Z,0.00
2023-05-10T01:11:22.960Z,0.00
2023-05-10T01:12:22.965Z,0.00
2023-05-10T01:13:22.934Z,0.00
2023-05-10T01:14:22.902Z,0.00
2023-05-10T01:15:22.921Z,0.00
2023-05-10T01:16:22.928Z,0.00
2023-05-10T01:17:22.885Z,0.00
2023-05-10T01:18:22.862Z,0.00
2023-05-10T01:19:22.868Z,0.00
2023-05-10T01:20:22.863Z,0.00
2023-05-10T01:21:22.832Z,0.00
2023-05-10T01:22:22.822Z,0.00
2023-05-10T01:23:22.824Z,0.00
2023-05-10T01:24:22.821Z,0.00
2023-05-10T01:25:22.798Z,0.00
2023-05-10T01:26:22.795Z,0.00
2023-05-10T01:27:22.762Z,0.00
2023-05-10T01:28:22.756Z,0.00
2023-05-10T01:29:22.760Z,0.00
2023-05-10T01:30:22.793Z,0.00
2023-05-10T01:31:22.740Z,0.00
2023-05-10T01:32:22.742Z,0.00
2023-05-10T01:33:22.738Z,0.00
2023-05-10T01:34:22.717Z,0.00
2023-05-10T01:35:22.686Z,0.00
2023-05-10T01:36:22.689Z,0.00
2023-05-10T01:37:22.663Z,0.00
2023-05-10T01:38:22.682Z,0.00
2023-05-10T01:39:22.681Z,0.00
2023-05-10T01:40:22.646Z,0.00
2023-05-10T01:41:22.635Z,0.00
2023-05-10T01:42:22.657Z,0.00
2023-05-10T01:43:22.609Z,0.00
2023-05-10T01:44:22.604Z,0.00
2023-05-10T01:45:22.573Z,0.00
2023-05-10T01:46:22.581Z,0.00
2023-05-10T01:47:22.557Z,0.00
2023-05-10T01:48:22.588Z,0.00
2023-05-10T01:49:22.526Z,0.00
2023-05-10T01:50:22.527Z,0.00
2023-05-10T01:51:22.548Z,0.00
2023-05-10T01:52:22.522Z,0.00
2023-05-10T01:53:22.499Z,0.00
2023-05-10T01:54:22.518Z,0.00
2023-05-10T01:55:22.478Z,0.00
2023-05-10T01:56:22.473Z,0.00
2023-05-10T01:57:22.504Z,0.00
2023-05-10T01:58:22.456Z,0.00
2023-05-10T01:59:22.428Z,0.00
2023-05-10T02:00:22.447Z,0.00
2023-05-10T02:01:22.712Z,0.00
2023-05-10T02:02:22.414Z,0.00
2023-05-10T02:03:22.469Z,0.00
2023-05-10T02:04:22.376Z,0.00
2023-05-10T02:05:22.367Z,0.00
2023-05-10T02:06:22.358Z,0.00
2023-05-10T02:07:22.362Z,0.00
2023-05-10T02:08:22.380Z,0.00
2023-05-10T02:09:22.332Z,0.00
2023-05-10T02:10:22.320Z,0.00
2023-05-10T02:11:22.322Z,0.00
2023-05-10T02:12:22.320Z,0.00
2023-05-10T02:13:22.334Z,0.00
2023-05-10T02:14:22.289Z,0.00
2023-05-10T02:15:22.271Z,0.00
2023-05-10T02:16:22.333Z,0.00
2023-05-10T02:17:22.246Z,0.00
2023-05-10T02:18:22.232Z,0.00
2023-05-10T02:19:22.222Z,0.00
2023-05-10T02:20:22.234Z,0.00
2023-05-10T02:21:22.205Z,0.00
2023-05-10T02:22:22.193Z,0.00
2023-05-10T02:23:22.184Z,0.00
2023-05-10T02:24:22.183Z,0.00
2023-05-10T02:25:22.184Z,0.00
2023-05-10T02:26:22.156Z,0.00
2023-05-10T02:27:22.143Z,0.00
2023-05-10T02:28:22.134Z,0.00
2023-05-10T02:29:22.127Z,0.00
2023-05-10T02:30:22.119Z,0.00
2023-05-10T02:31:22.134Z,0.00
2023-05-10T02:32:22.108Z,0.00
2023-05-10T02:33:22.086Z,0.00
2023-05-10T02:34:22.084Z,0.00
2023-05-10T02:35:22.072Z,0.00
2023-05-10T02:36:22.054Z,0.00
2023-05-10T02:37:22.048Z,0.00
2023-05-10T02:38:22.027Z,0.00
2023-05-10T02:39:22.029Z,0.00
2023-05-10T02:40:22.006Z,0.00
2023-05-10T02:41:21.996Z,0.00
2023-05-10T02:42:21.981Z,0.00
2023-05-10T02:43:21.995Z,0.00
2023-05-10T02:44:21.977Z,0.00
2023-05-10T02:45:21.968Z,0.00
2023-05-10T02:46:21.956Z,0.00
2023-05-10T02:47:21.934Z,0.00
2023-05-10T02:48:21.930Z,0.00
2023-05-10T02:49:21.935Z,0.00
2023-05-10T02:50:21.899Z,0.00
2023-05-10T02:51:21.896Z,0.00
2023-05-10T02:52:21.881Z,0.00
2023-05-10T02:53:21.887Z,0.00
2023-05-10T02:54:21.875Z,0.00
2023-05-10T02:55:21.881Z,0.00
2023-05-10T02:56:21.904Z,0.00
2023-05-10T02:57:21.895Z,0.00
2023-05-10T02:58:21.859Z,0.00
2023-05-10T02:59:21.861Z,0.00
2023-05-10T03:00:21.829Z,0.00
2023-05-10T03:01:21.813Z,0.00
2023-05-10T03:02:21.825Z,0.00
2023-05-10T03:03:21.788Z,0.00
2023-05-10T03:04:21.830Z,0.00
2023-05-10T03:05:21.750Z,0.00
2023-05-10T03:06:21.731Z,0.00
2023-05-10T03:07:21.742Z,0.00
2023-05-10T03:08:21.708Z,0.00
2023-05-10T03:09:21.722Z,0.00
2023-05-10T03:10:21.703Z,0.00
2023-05-10T03:11:21.698Z,0.00
2023-05-10T03:12:21.696Z,0.00
2023-05-10T03:13:21.697Z,0.00
2023-05-10T03:14:21.651Z,0.00
2023-05-10T03:15:21.661Z,0.00
2023-05-10T03:16:21.666Z,0.00
2023-05-10T03:17:21.661Z,0.00
2023-05-10T03:18:21.614Z,0.00
2023-05-10T03:19:21.602Z,0.00
2023-05-10T03:20:21.603Z,0.00
2023-05-10T03:21:21.604Z,0.00
2023-05-10T03:22:21.544Z,1.00
2023-05-10T03:23:21.550Z,2.00
2023-05-10T03:24:21.518Z,1.00
2023-05-10T03:25:21.494Z,1.00
2023-05-10T03:26:21.507Z,1.00
2023-05-10T03:27:21.474Z,2.00
2023-05-10T03:28:21.470Z,2.00
2023-05-10T03:29:21.459Z,2.00
2023-05-10T03:30:21.510Z,2.00
2023-05-10T03:31:21.591Z,2.00
2023-05-10T03:32:21.413Z,2.00
2023-05-10T03:33:21.416Z,2.00
2023-05-10T03:34:21.410Z,3.00
2023-05-10T03:35:21.426Z,3.00
2023-05-10T03:36:21.372Z,3.00
2023-05-10T03:37:21.374Z,5.00
2023-05-10T03:38:21.353Z,4.00
2023-05-10T03:39:21.359Z,4.00
2023-05-10T03:40:21.358Z,8.00
2023-05-10T03:41:21.351Z,7.00
2023-05-10T03:42:21.307Z,7.00
2023-05-10T03:43:21.301Z,6.00
2023-05-10T03:44:21.322Z,6.00
2023-05-10T03:45:21.289Z,10.00
2023-05-10T03:46:21.300Z,10.00
2023-05-10T03:47:21.268Z,11.00
2023-05-10T03:48:21.250Z,18.00
2023-05-10T03:49:21.254Z,22.00
2023-05-10T03:50:21.227Z,24.00
2023-05-10T03:51:21.218Z,22.00
2023-05-10T03:52:21.223Z,25.00
2023-05-10T03:53:21.236Z,25.00
2023-05-10T03:54:21.211Z,28.00
2023-05-10T03:55:21.179Z,30.00
2023-05-10T03:56:21.172Z,33.00
2023-05-10T03:57:21.155Z,33.00
2023-05-10T03:58:21.160Z,40.00
2023-05-10T03:59:21.154Z,44.00
2023-05-10T04:00:21.121Z,52.00
2023-05-10T04:01:21.139Z,60.00
2023-05-10T04:02:21.168Z,69.00
2023-05-10T04:03:21.216Z,78.00
2023-05-10T04:04:21.121Z,79.00
2023-05-10T04:05:21.078Z,87.00
2023-05-10T04:06:21.134Z,105.00
2023-05-10T04:07:21.067Z,119.00
2023-05-10T04:08:21.077Z,144.00
2023-05-10T04:09:21.042Z,161.00
2023-05-10T04:10:21.022Z,178.00
2023-05-10T04:11:21.026Z,191.00
2023-05-10T04:12:21.009Z,201.00
2023-05-10T04:13:21.122Z,202.00
2023-05-10T04:14:20.999Z,204.00
2023-05-10T04:15:20.972Z,205.00
2023-05-10T04:16:21.010Z,211.00
2023-05-10T04:17:21.026Z,206.00
2023-05-10T04:18:20.941Z,192.00
2023-05-10T04:19:21.274Z,171.00
2023-05-10T04:20:20.936Z,162.00
2023-05-10T04:21:20.932Z,180.00
2023-05-10T04:22:20.914Z,185.00
2023-05-10T04:23:20.888Z,173.00
2023-05-10T04:24:20.882Z,192.00
2023-05-10T04:25:20.891Z,258.00
2023-05-10T04:26:20.885Z,262.00
2023-05-10T04:27:20.853Z,254.00
2023-05-10T04:28:20.828Z,252.00
2023-05-10T04:29:20.835Z,244.00
2023-05-10T04:30:20.886Z,264.00
2023-05-10T04:31:20.863Z,280.00
2023-05-10T04:32:20.802Z,299.00
2023-05-10T04:33:20.894Z,299.00
2023-05-10T04:34:20.770Z,283.00
2023-05-10T04:35:20.826Z,274.00
2023-05-10T04:36:20.758Z,261.00
2023-05-10T04:37:20.745Z,282.00
2023-05-10T04:38:20.745Z,267.00
2023-05-10T04:39:20.716Z,258.00
2023-05-10T04:40:20.722Z,231.00
2023-05-10T04:41:20.707Z,332.00
2023-05-10T04:42:20.681Z,448.00
2023-05-10T04:43:20.673Z,431.00
2023-05-10T04:44:20.694Z,502.00
2023-05-10T04:45:20.680Z,575.00
2023-05-10T04:46:20.719Z,658.00
2023-05-10T04:47:20.692Z,677.00
2023-05-10T04:48:20.638Z,582.00
2023-05-10T04:49:20.660Z,525.00
2023-05-10T04:50:20.619Z,617.00
2023-05-10T04:51:20.600Z,712.00
2023-05-10T04:52:20.596Z,765.00
2023-05-10T04:53:20.600Z,753.00
2023-05-10T04:54:20.590Z,776.00
2023-05-10T04:55:20.553Z,844.00
2023-05-10T04:56:20.537Z,908.00
2023-05-10T04:57:20.533Z,987.00
2023-05-10T04:58:20.537Z,1046.00
2023-05-10T04:59:20.542Z,1085.00
2023-05-10T05:00:20.502Z,1101.00
2023-05-10T05:01:20.530Z,1120.00
2023-05-10T05:02:20.506Z,1174.00
2023-05-10T05:03:20.616Z,1195.00
2023-05-10T05:04:20.484Z,1212.00
2023-05-10T05:05:20.468Z,1224.00
2023-05-10T05:06:20.434Z,1202.00
2023-05-10T05:07:20.429Z,1152.00
2023-05-10T05:08:20.429Z,1075.00
2023-05-10T05:09:20.409Z,1106.00
2023-05-10T05:10:20.553Z,981.00
2023-05-10T05:11:20.388Z,904.00
2023-05-10T05:12:20.397Z,906.00
2023-05-10T05:13:20.417Z,942.00
2023-05-10T05:14:20.355Z,1052.00
2023-05-10T05:15:20.346Z,1082.00
2023-05-10T05:16:20.424Z,1101.00
2023-05-10T05:17:20.353Z,1076.00
2023-05-10T05:18:20.366Z,1097.00
2023-05-10T05:19:20.316Z,1088.00
2023-05-10T05:20:20.307Z,1086.00
2023-05-10T05:21:20.292Z,1102.00
2023-05-10T05:22:20.669Z,1119.00
2023-05-10T05:23:20.269Z,1117.00
2023-05-10T05:24:20.248Z,1134.00
2023-05-10T05:25:20.251Z,1146.00
2023-05-10T05:26:20.241Z,1144.00
2023-05-10T05:27:20.276Z,1144.00
2023-05-10T05:28:20.208Z,1082.00
2023-05-10T05:29:20.205Z,1135.00
2023-05-10T05:30:20.198Z,1226.00
2023-05-10T05:31:20.245Z,1086.00
2023-05-10T05:32:20.169Z,1097.00
2023-05-10T05:33:20.174Z,1127.00
2023-05-10T05:34:20.143Z,1132.00
2023-05-10T05:35:20.160Z,1134.00
2023-05-10T05:36:20.155Z,1134.00
2023-05-10T05:37:20.153Z,1212.00
2023-05-10T05:38:20.117Z,1218.00
2023-05-10T05:39:20.090Z,1343.00
2023-05-10T05:40:20.103Z,1445.00
2023-05-10T05:41:20.087Z,1486.00
2023-05-10T05:42:20.091Z,1512.00
2023-05-10T05:43:20.061Z,1604.00
2023-05-10T05:44:20.031Z,1664.00
2023-05-10T05:45:20.238Z,1679.00
2023-05-10T05:46:20.093Z,1728.00
2023-05-10T05:47:20.024Z,1797.00
2023-05-10T05:48:20.068Z,1836.00
2023-05-10T05:49:19.998Z,1890.00
2023-05-10T05:50:20.016Z,1911.00
2023-05-10T05:51:19.995Z,1955.00
2023-05-10T05:52:19.952Z,1980.00
2023-05-10T05:53:19.954Z,2002.00
2023-05-10T05:54:20.009Z,2045.00
2023-05-10T05:55:19.952Z,2080.00
2023-05-10T05:56:19.920Z,2117.00
2023-05-10T05:57:19.935Z,2143.00
2023-05-10T05:58:19.901Z,2188.00
2023-05-10T05:59:19.905Z,2214.00
2023-05-10T06:00:19.914Z,2220.00
2023-05-10T06:01:19.869Z,2211.00
2023-05-10T06:02:19.894Z,2215.00
2023-05-10T06:03:20.055Z,2217.00
2023-05-10T06:04:19.941Z,2070.00
2023-05-10T06:05:19.831Z,2075.00
2023-05-10T06:06:19.832Z,2126.00
2023-05-10T06:07:19.816Z,2096.00
2023-05-10T06:08:19.826Z,2126.00
2023-05-10T06:09:19.843Z,2002.00
2023-05-10T06:10:19.769Z,1982.00
2023-05-10T06:11:19.769Z,2122.00
2023-05-10T06:12:19.775Z,1820.00
2023-05-10T06:13:19.852Z,1830.00
2023-05-10T06:14:19.730Z,1818.00
2023-05-10T06:15:19.725Z,1700.00
2023-05-10T06:16:19.738Z,1624.00
2023-05-10T06:17:19.704Z,1726.00
2023-05-10T06:18:19.707Z,1649.00
2023-05-10T06:19:19.688Z,1454.00
2023-05-10T06:20:19.678Z,1254.00
2023-05-10T06:21:19.672Z,1115.00
2023-05-10T06:22:19.662Z,1471.00
2023-05-10T06:23:19.653Z,1875.00
2023-05-10T06:24:19.659Z,2002.00
2023-05-10T06:25:19.764Z,1893.00
2023-05-10T06:26:19.607Z,1674.00
2023-05-10T06:27:19.614Z,1471.00
2023-05-10T06:28:19.587Z,1483.00
2023-05-10T06:29:19.624Z,1490.00
2023-05-10T06:30:19.564Z,1442.00
2023-05-10T06:31:19.774Z,1446.00
2023-05-10T06:32:19.652Z,1448.00
2023-05-10T06:33:20.212Z,1593.00
2023-05-10T06:34:19.664Z,1616.00
2023-05-10T06:35:19.679Z,1463.00
2023-05-10T06:36:19.507Z,1283.00
2023-05-10T06:37:19.516Z,1135.00
2023-05-10T06:38:19.489Z,1005.00
2023-05-10T06:39:19.482Z,944.00
2023-05-10T06:40:19.490Z,872.00
2023-05-10T06:41:19.481Z,866.00
2023-05-10T06:42:19.447Z,755.00
2023-05-10T06:43:19.440Z,798.00
2023-05-10T06:44:19.431Z,1131.00
2023-05-10T06:45:19.728Z,1127.00
2023-05-10T06:46:19.518Z,1207.00
2023-05-10T06:47:19.389Z,1579.00
2023-05-10T06:48:19.423Z,1500.00
2023-05-10T06:49:19.373Z,1462.00
2023-05-10T06:50:19.392Z,1525.00
2023-05-10T06:51:19.362Z,1675.00
2023-05-10T06:52:19.346Z,1712.00
2023-05-10T06:53:19.328Z,1763.00
2023-05-10T06:54:19.318Z,1853.00
2023-05-10T06:55:19.377Z,1875.00
2023-05-10T06:56:19.304Z,1847.00
2023-05-10T06:57:30.535Z,1882.00
2023-05-10T06:58:19.280Z,2104.00
2023-05-10T06:59:19.327Z,2210.00
2023-05-10T07:00:19.729Z,2474.00
2023-05-10T07:01:19.419Z,2824.00
2023-05-10T07:02:19.359Z,3133.00
2023-05-10T07:03:19.244Z,3356.00
2023-05-10T07:04:19.266Z,3668.00
2023-05-10T07:05:19.412Z,3895.00
2023-05-10T07:06:32.141Z,3988.00
2023-05-10T07:07:19.218Z,3958.00
2023-05-10T07:08:19.195Z,3942.00
2023-05-10T07:09:19.185Z,4014.00
2023-05-10T07:10:19.166Z,4068.00
2023-05-10T07:11:19.143Z,3949.00
2023-05-10T07:12:19.178Z,3957.00
2023-05-10T07:13:19.218Z,4022.00
2023-05-10T07:14:19.128Z,4117.00
2023-05-10T07:15:19.245Z,4144.00
2023-05-10T07:16:19.133Z,4292.00
2023-05-10T07:17:19.208Z,4379.00
2023-05-10T07:18:19.146Z,4351.00
2023-05-10T07:19:19.061Z,4389.00
2023-05-10T07:20:19.049Z,4424.00
2023-05-10T07:21:19.128Z,4437.00
2023-05-10T07:22:19.051Z,4253.00
2023-05-10T07:23:19.059Z,4349.00
2023-05-10T07:24:19.020Z,4384.00
2023-05-10T07:25:19.119Z,4121.00
2023-05-10T07:26:19.025Z,3994.00
2023-05-10T07:27:18.994Z,3981.00
2023-05-10T07:28:18.979Z,3932.00
2023-05-10T07:29:18.954Z,3858.00
2023-05-10T07:30:19.010Z,3965.00
2023-05-10T07:31:18.935Z,4115.00
2023-05-10T07:32:19.187Z,3979.00
2023-05-10T07:33:19.035Z,3879.00
2023-05-10T07:34:18.994Z,3850.00
2023-05-10T07:35:18.969Z,3594.00
2023-05-10T07:36:18.896Z,3136.00
2023-05-10T07:37:18.891Z,3088.00
2023-05-10T07:38:18.867Z,3343.00
2023-05-10T07:39:26.620Z,3231.00
2023-05-10T07:40:18.855Z,3543.00
2023-05-10T07:41:18.844Z,3057.00
2023-05-10T07:42:18.842Z,3105.00
2023-05-10T07:43:18.810Z,3696.00
2023-05-10T07:44:18.799Z,3902.00
2023-05-10T07:45:18.878Z,3683.00
2023-05-10T07:46:18.867Z,3589.00
2023-05-10T07:47:18.780Z,3429.00
2023-05-10T07:48:18.766Z,3507.00
2023-05-10T07:49:18.760Z,3520.00
2023-05-10T07:50:18.755Z,3663.00
2023-05-10T07:51:18.743Z,3607.00
2023-05-10T07:52:20.620Z,3420.00
2023-05-10T07:53:18.746Z,3801.00
2023-05-10T07:54:18.708Z,4008.00
2023-05-10T07:55:18.869Z,3911.00
2023-05-10T07:56:18.697Z,4038.00
2023-05-10T07:57:18.692Z,4144.00
2023-05-10T07:58:18.674Z,4235.00
2023-05-10T07:59:18.653Z,3901.00
2023-05-10T08:00:18.667Z,3819.00
2023-05-10T08:01:18.661Z,3794.00
2023-05-10T08:02:18.675Z,4052.00
2023-05-10T08:03:18.728Z,4040.00
2023-05-10T08:04:18.625Z,3985.00
2023-05-10T08:05:18.790Z,3923.00
2023-05-10T08:06:18.606Z,3693.00
2023-05-10T08:07:18.558Z,3976.00
2023-05-10T08:08:18.562Z,3773.00
2023-05-10T08:09:18.546Z,4095.00
2023-05-10T08:10:18.553Z,4358.00
2023-05-10T08:11:18.543Z,4565.00
2023-05-10T08:12:18.513Z,4660.00
2023-05-10T08:13:18.496Z,4541.00
2023-05-10T08:14:18.502Z,4637.00
2023-05-10T08:15:18.688Z,4337.00
2023-05-10T08:16:18.521Z,4143.00
2023-05-10T08:17:20.060Z,4169.00
2023-05-10T08:18:18.606Z,4502.00
2023-05-10T08:19:18.451Z,4450.00
2023-05-10T08:20:18.429Z,4639.00
2023-05-10T08:21:18.411Z,4040.00
2023-05-10T08:22:18.417Z,4092.00
2023-05-10T08:23:18.594Z,4438.00
2023-05-10T08:24:18.402Z,4531.00
2023-05-10T08:25:18.573Z,3995.00
2023-05-10T08:26:18.383Z,3861.00
2023-05-10T08:27:18.350Z,3986.00
2023-05-10T08:28:18.412Z,4107.00
2023-05-10T08:29:18.335Z,4608.00
2023-05-10T08:30:18.338Z,4715.00
2023-05-10T08:31:18.336Z,3825.00
2023-05-10T08:32:18.348Z,3435.00
2023-05-10T08:33:18.304Z,3925.00
2023-05-10T08:34:18.284Z,3728.00
2023-05-10T08:35:18.398Z,3004.00
2023-05-10T08:36:18.290Z,3546.00
2023-05-10T08:37:18.266Z,3516.00
2023-05-10T08:38:18.254Z,3161.00
2023-05-10T08:39:29.287Z,3615.00
2023-05-10T08:40:18.227Z,3851.00
2023-05-10T08:41:18.229Z,4168.00
2023-05-10T08:42:18.212Z,4335.00
2023-05-10T08:43:18.184Z,4052.00
2023-05-10T08:44:18.205Z,4235.00
2023-05-10T08:45:18.475Z,5237.00
2023-05-10T08:46:18.213Z,5976.00
2023-05-10T08:47:18.171Z,6858.00
2023-05-10T08:48:18.149Z,6842.00
2023-05-10T08:49:18.116Z,6730.00
2023-05-10T08:50:18.120Z,6848.00
2023-05-10T08:51:18.121Z,7122.00
2023-05-10T08:52:18.099Z,7053.00
2023-05-10T08:53:18.082Z,6162.00
2023-05-10T08:54:18.092Z,5466.00
2023-05-10T08:55:18.361Z,5367.00
2023-05-10T08:56:18.066Z,5322.00
2023-05-10T08:57:18.048Z,5427.00
2023-05-10T08:58:18.051Z,4544.00
2023-05-10T08:59:18.040Z,4057.00
2023-05-10T09:00:18.031Z,4312.00
2023-05-10T09:01:18.088Z,4522.00
2023-05-10T09:02:18.927Z,5023.00
2023-05-10T09:03:17.983Z,5078.00
2023-05-10T09:04:18.022Z,4723.00
2023-05-10T09:05:18.218Z,4784.00
2023-05-10T09:06:17.963Z,5056.00
2023-05-10T09:07:17.949Z,4896.00
2023-05-10T09:08:17.953Z,4575.00
2023-05-10T09:09:17.933Z,4080.00
2023-05-10T09:10:17.948Z,3836.00
2023-05-10T09:11:17.908Z,3924.00
2023-05-10T09:12:17.917Z,3874.00
2023-05-10T09:13:17.913Z,4239.00
2023-05-10T09:14:17.914Z,4706.00
2023-05-10T09:15:18.125Z,4684.00
2023-05-10T09:16:21.864Z,4558.00
2023-05-10T09:17:17.925Z,4305.00
2023-05-10T09:18:17.932Z,4169.00
2023-05-10T09:19:17.827Z,4863.00
2023-05-10T09:20:17.818Z,4469.00
2023-05-10T09:21:17.792Z,3828.00
2023-05-10T09:22:17.786Z,3665.00
2023-05-10T09:23:17.797Z,3606.00
2023-05-10T09:24:17.782Z,3468.00
2023-05-10T09:25:18.226Z,3613.00
2023-05-10T09:26:17.768Z,3649.00
2023-05-10T09:27:17.743Z,3735.00
2023-05-10T09:28:17.750Z,3809.00
2023-05-10T09:29:18.138Z,4097.00
2023-05-10T09:30:17.738Z,3841.00
2023-05-10T09:31:17.726Z,3463.00
2023-05-10T09:32:17.691Z,3981.00
2023-05-10T09:33:17.686Z,4339.00
2023-05-10T09:34:17.666Z,4879.00
2023-05-10T09:35:17.893Z,5547.00
2023-05-10T09:36:17.672Z,5584.00
2023-05-10T09:37:17.645Z,5283.00
2023-05-10T09:38:17.644Z,6290.00
2023-05-10T09:39:17.607Z,6510.00
2023-05-10T09:40:17.622Z,7301.00
2023-05-10T09:41:17.586Z,7421.00
2023-05-10T09:42:17.592Z,6965.00
2023-05-10T09:43:17.581Z,7357.00
2023-05-10T09:44:17.558Z,8052.00
2023-05-10T09:45:17.830Z,8178.00
2023-05-10T09:46:17.607Z,8028.00
2023-05-10T09:47:17.536Z,7666.00
2023-05-10T09:48:17.520Z,7889.00
2023-05-10T09:49:17.501Z,7891.00
2023-05-10T09:50:17.674Z,7339.00
2023-05-10T09:51:17.482Z,6981.00
2023-05-10T09:52:17.499Z,7294.00
2023-05-10T09:53:17.480Z,6932.00
2023-05-10T09:54:17.458Z,7342.00
2023-05-10T09:55:17.763Z,7478.00
2023-05-10T09:56:17.456Z,6517.00
2023-05-10T09:57:17.435Z,8948.00
2023-05-10T09:58:17.426Z,8524.00
2023-05-10T09:59:17.418Z,9179.00
2023-05-10T10:00:17.407Z,7847.00
2023-05-10T10:01:17.488Z,7973.00
2023-05-10T10:02:17.403Z,8008.00
2023-05-10T10:03:17.361Z,7792.00
2023-05-10T10:04:17.366Z,8339.00
2023-05-10T10:05:17.566Z,8709.00
2023-05-10T10:06:29.095Z,8854.00
2023-05-10T10:07:17.328Z,9012.00
2023-05-10T10:08:17.327Z,8042.00
2023-05-10T10:09:17.333Z,7751.00
2023-05-10T10:10:17.348Z,6717.00
2023-05-10T10:11:17.368Z,6863.00
2023-05-10T10:12:17.316Z,7529.00
2023-05-10T10:13:17.292Z,8541.00
2023-05-10T10:14:17.279Z,9321.00
2023-05-10T10:15:17.438Z,9376.00
2023-05-10T10:16:17.361Z,10983.00
2023-05-10T10:17:17.283Z,8905.00
2023-05-10T10:18:17.252Z,9079.00
2023-05-10T10:19:17.212Z,8804.00
2023-05-10T10:20:17.481Z,8694.00
2023-05-10T10:21:17.180Z,8504.00
2023-05-10T10:22:17.172Z,7908.00
2023-05-10T10:23:17.781Z,9398.00
2023-05-10T10:24:17.160Z,11398.00
2023-05-10T10:25:17.335Z,7754.00
2023-05-10T10:26:17.134Z,10268.00
2023-05-10T10:27:17.127Z,9529.00
2023-05-10T10:28:17.132Z,8881.00
2023-05-10T10:29:17.114Z,7410.00
2023-05-10T10:30:17.187Z,8621.00
2023-05-10T10:31:17.120Z,6737.00
2023-05-10T10:32:17.068Z,11286.00
2023-05-10T10:33:27.887Z,7320.00
2023-05-10T10:34:17.063Z,7075.00
2023-05-10T10:35:17.329Z,7940.00
2023-05-10T10:36:17.034Z,9435.00
2023-05-10T10:37:17.034Z,7060.00
2023-05-10T10:38:17.029Z,5804.00
2023-05-10T10:39:17.012Z,8179.00
2023-05-10T10:40:16.979Z,7425.00
2023-05-10T10:41:16.983Z,7067.00
2023-05-10T10:42:16.980Z,6844.00
2023-05-10T10:43:16.986Z,6522.00
2023-05-10T10:44:16.941Z,5619.00
2023-05-10T10:45:17.183Z,4159.00
2023-05-10T10:46:16.973Z,2854.00
2023-05-10T10:47:16.912Z,2128.00
2023-05-10T10:48:16.923Z,1820.00
2023-05-10T10:49:16.891Z,1913.00
2023-05-10T10:50:16.893Z,1878.00
2023-05-10T10:51:16.866Z,1993.00
2023-05-10T10:52:16.904Z,2060.00
2023-05-10T10:53:16.924Z,2109.00
2023-05-10T10:54:16.839Z,2169.00
2023-05-10T10:55:17.089Z,2158.00
2023-05-10T10:56:16.819Z,2174.00
2023-05-10T10:57:16.822Z,2164.00
2023-05-10T10:58:16.808Z,2190.00
2023-05-10T10:59:16.794Z,2254.00
2023-05-10T11:00:16.779Z,2293.00
2023-05-10T11:01:16.808Z,2385.00
2023-05-10T11:02:16.768Z,2302.00
2023-05-10T11:03:16.792Z,2312.00
2023-05-10T11:04:16.753Z,2436.00
2023-05-10T11:05:16.958Z,2657.00
2023-05-10T11:06:16.758Z,2864.00
2023-05-10T11:07:16.718Z,3062.00
2023-05-10T11:08:16.694Z,3208.00
2023-05-10T11:09:16.673Z,3495.00
2023-05-10T11:10:16.666Z,3834.00
2023-05-10T11:11:16.675Z,3801.00
2023-05-10T11:12:16.838Z,3846.00
2023-05-10T11:13:16.652Z,3892.00
2023-05-10T11:14:16.635Z,3982.00
2023-05-10T11:15:16.854Z,4189.00
2023-05-10T11:16:16.736Z,4222.00
2023-05-10T11:17:16.622Z,4289.00
2023-05-10T11:18:16.622Z,4284.00
2023-05-10T11:19:16.616Z,4341.00
2023-05-10T11:20:16.939Z,4394.00
2023-05-10T11:21:16.574Z,4467.00
2023-05-10T11:22:16.569Z,4599.00
2023-05-10T11:23:16.538Z,4784.00
2023-05-10T11:24:16.537Z,4946.00
2023-05-10T11:25:16.529Z,4950.00
2023-05-10T11:26:16.518Z,4863.00
2023-05-10T11:27:16.502Z,4605.00
2023-05-10T11:28:16.492Z,4248.00
2023-05-10T11:29:16.479Z,3916.00
2023-05-10T11:30:16.721Z,3793.00
2023-05-10T11:31:16.569Z,3768.00
2023-05-10T11:32:16.505Z,3896.00
2023-05-10T11:33:16.457Z,4153.00
2023-05-10T11:34:16.414Z,4133.00
2023-05-10T11:35:16.419Z,4105.00
2023-05-10T11:36:16.393Z,4243.00
2023-05-10T11:37:16.393Z,4538.00
2023-05-10T11:38:16.384Z,4904.00
2023-05-10T11:39:16.399Z,5027.00
2023-05-10T11:40:16.602Z,5246.00
2023-05-10T11:41:16.406Z,5431.00
2023-05-10T11:42:16.341Z,5634.00
2023-05-10T11:43:16.329Z,5773.00
2023-05-10T11:44:16.344Z,6174.00
2023-05-10T11:45:16.326Z,6392.00
2023-05-10T11:46:16.372Z,6643.00
2023-05-10T11:47:16.283Z,6793.00
2023-05-10T11:48:16.274Z,6955.00
2023-05-10T11:49:16.291Z,7180.00
2023-05-10T11:50:16.433Z,7393.00
2023-05-10T11:51:16.275Z,7316.00
2023-05-10T11:52:16.260Z,7088.00
2023-05-10T11:53:16.283Z,6900.00
2023-05-10T11:54:16.237Z,7109.00
2023-05-10T11:55:16.236Z,7266.00
2023-05-10T11:56:16.220Z,7785.00
2023-05-10T11:57:16.204Z,7694.00
2023-05-10T11:58:16.249Z,7549.00
2023-05-10T11:59:16.212Z,7736.00
2023-05-10T12:00:16.324Z,7712.00
2023-05-10T12:01:16.167Z,7520.00
2023-05-10T12:02:16.216Z,7465.00
2023-05-10T12:03:16.261Z,6924.00
2023-05-10T12:04:16.313Z,6872.00
2023-05-10T12:05:16.107Z,6959.00
2023-05-10T12:06:16.083Z,6906.00
2023-05-10T12:07:16.094Z,6750.00
2023-05-10T12:08:16.071Z,7297.00
2023-05-10T12:09:17.619Z,7054.00
2023-05-10T12:10:16.604Z,7035.00
2023-05-10T12:11:16.065Z,6951.00
2023-05-10T12:12:16.091Z,6866.00
2023-05-10T12:13:16.032Z,6795.00
2023-05-10T12:14:16.051Z,6817.00
2023-05-10T12:15:16.060Z,6665.00
2023-05-10T12:16:16.042Z,6344.00
2023-05-10T12:17:15.997Z,6099.00
2023-05-10T12:18:16.109Z,5906.00
2023-05-10T12:19:15.960Z,5763.00
2023-05-10T12:20:16.277Z,5611.00
2023-05-10T12:21:15.952Z,5132.00
2023-05-10T12:22:16.302Z,4712.00
2023-05-10T12:23:15.935Z,4537.00
2023-05-10T12:24:15.894Z,4511.00
2023-05-10T12:25:15.897Z,4404.00
2023-05-10T12:26:15.896Z,4220.00
2023-05-10T12:27:15.898Z,3974.00
2023-05-10T12:28:15.872Z,4235.00
2023-05-10T12:29:15.860Z,4527.00